メインページ
METAR-TAF:

METAR-TAF

空港 :

仁川国際空港, 大韓民国

緯度: 37-28N, 経度: 126-27E, 海抜: 7m

現時点の気象観測

当レポートは43分前の11:30(UTC)に作成
の風 5kt
気温 14°C
湿度 47%
気圧 1016 hPa
視程10km以上
1,500メートル以下は雲なし、積乱雲なし

METAR: RKSI 161130Z 35005KT CAVOK 14/03 Q1016 NOSIG

時間: 21:13 (12:13 UTC)

予報

当レポートは1時間13分前の11:00(UTC)に作成
予報は16日の 12時(UTC)から 17日の 18時(UTC)まで有効
北/北西の風 8kt
視程10km以上
高度3000ftの雲はほとんどない
高度18000ftの雲は散在している
17日の 04時(UTC)から 17日の 05時(UTC)まで徐々に
西の風 10kt
17日の 11時(UTC)から 17日の 12時(UTC)まで徐々に
の風 7kt
視程: 6000m
17日の 17時(UTC)から 17日の 18時(UTC)まで徐々に
東/北東の風 7kt
視程: 4200m

TAF: RKSI 161100Z 1612/1718 33008KT 9999 FEW030 SCT180 TN09/1621Z TX16/1705Z BECMG 1704/1705 27010KT BECMG 1711/1712 36007KT 6000 BECMG 1717/1718 06007KT 4200 BR

4,000以上の空港の気象観測と天気予報(METAR報とTAF報)

利用可能な観測所は地図上に黄色い丸と赤い丸で示す。

丸の上にカーソルを重ねると観測所名を参照できる。

次にクリックすると気象観測と天気予報を参照できる。

マップの切り替え:黒色「×」印の緑ボタンをクリックして拡大、「-」印の緑ボタンをクリックして縮小、緑色の三角印をクリックして隣りの地図に切り替え


METAR-TAF: